Time;durP1;ratioP1;P1;durP2;ratioP2;P2;SDS_P1;SDS_P2;PMS_P1;PMS_P2;Temp;Humidity;BMP_temperature;BMP_pressure;BME280_temperature;BME280_humidity;BME280_pressure;Samples;Min_cycle;Max_cycle;Signal;HPM_P1;HPM_P2
2021/09/26 00:00:33;;;;;;;2.57;2.03;;;;;;;17.53;58.67;98901.00;6309961;22;41751;-83
2021/09/26 00:03:02;;;;;;;2.40;1.83;;;;;;;17.59;59.07;98920.00;6281706;22;43210;-83
2021/09/26 00:05:29;;;;;;;2.20;2.00;;;;;;;17.51;58.82;98906.47;6282157;22;42552;-84
2021/09/26 00:07:57;;;;;;;2.60;2.40;;;;;;;17.51;58.63;98901.13;6282204;22;40706;-84
2021/09/26 00:10:30;;;;;;;1.93;1.63;;;;;;;17.61;58.58;98927.91;6281349;22;42161;-84
2021/09/26 00:12:58;;;;;;;2.17;1.87;;;;;;;17.62;58.60;98931.44;6309038;22;43154;-86
2021/09/26 00:15:26;;;;;;;1.60;1.50;;;;;;;17.49;58.84;98908.44;6282110;22;42366;-83
2021/09/26 00:17:57;;;;;;;2.40;1.87;;;;;;;17.43;58.40;98898.28;6282946;22;40247;-85
2021/09/26 00:20:27;;;;;;;1.80;1.70;;;;;;;17.64;58.41;98918.78;6309467;22;42623;-84
2021/09/26 00:23:02;;;;;;;2.73;2.17;;;;;;;17.52;58.89;98894.78;6282440;22;44040;-85
2021/09/26 00:25:29;;;;;;;2.90;2.20;;;;;;;17.67;60.42;98911.34;6281471;22;42682;-85
2021/09/26 00:27:57;;;;;;;5.57;2.50;;;;;;;17.53;60.45;98898.31;6270485;22;39017;-83
2021/09/26 00:30:24;;;;;;;2.50;2.30;;;;;;;17.63;59.95;98920.63;6309966;22;42008;-83
2021/09/26 00:32:52;;;;;;;3.30;2.50;;;;;;;17.61;59.58;98922.56;6308310;22;43770;-84
2021/09/26 00:35:24;;;;;;;2.40;2.00;;;;;;;17.43;59.61;98892.91;6282087;22;42494;-84
2021/09/26 00:37:54;;;;;;;1.90;1.50;;;;;;;17.60;59.25;98929.75;6254860;22;38998;-85
2021/09/26 00:40:21;;;;;;;2.00;1.80;;;;;;;17.62;59.03;98928.75;6280832;22;41913;-85
2021/09/26 00:42:49;;;;;;;2.33;2.03;;;;;;;17.63;59.11;98930.47;6309178;22;44099;-84
2021/09/26 00:45:21;;;;;;;3.40;1.87;;;;;;;17.71;58.97;98941.34;6256115;22;41172;-85
2021/09/26 00:47:49;;;;;;;2.30;1.90;;;;;;;17.63;58.65;98925.97;6308860;22;39981;-84
2021/09/26 00:50:18;;;;;;;2.57;1.90;;;;;;;17.70;58.85;98928.94;6308873;22;42076;-84
2021/09/26 00:52:47;;;;;;;2.50;2.17;;;;;;;17.73;58.64;98925.97;6281310;22;42178;-84
2021/09/26 00:55:16;;;;;;;2.03;1.70;;;;;;;17.88;58.60;98935.31;6308845;22;42706;-84
2021/09/26 00:57:45;;;;;;;2.60;2.20;;;;;;;17.90;59.32;98928.00;6309273;22;40308;-84
2021/09/26 01:00:17;;;;;;;3.63;2.30;;;;;;;17.90;59.06;98925.31;6309021;22;41797;-84
2021/09/26 01:02:45;;;;;;;3.20;2.30;;;;;;;17.94;58.71;98926.69;6280414;22;42148;-84
2021/09/26 01:05:15;;;;;;;3.13;2.33;;;;;;;17.99;58.81;98931.66;6308601;22;42606;-85
2021/09/26 01:07:53;;;;;;;2.27;2.07;;;;;;;17.91;58.83;98910.94;6308928;22;40599;-83
2021/09/26 01:10:29;;;;;;;2.83;2.27;;;;;;;18.01;58.90;98935.88;6281664;22;42731;-83
2021/09/26 01:13:06;;;;;;;2.57;2.03;;;;;;;18.01;58.92;98930.53;6280641;22;43942;-85
2021/09/26 01:15:54;;;;;;;3.03;2.33;;;;;;;18.03;59.15;98927.72;6308533;22;42538;-83
2021/09/26 01:18:29;;;;;;;3.37;2.10;;;;;;;17.96;59.07;98924.72;6281803;22;41016;-83
2021/09/26 01:21:10;;;;;;;3.50;2.13;;;;;;;17.97;59.11;98926.44;6255217;22;40901;-83
2021/09/26 01:24:24;;;;;;;2.27;1.87;;;;;;;18.04;59.14;98930.25;6255483;22;41848;-85
2021/09/26 01:27:16;;;;;;;3.13;2.03;;;;;;;18.00;59.19;98934.19;6255508;22;41749;-84
2021/09/26 01:30:10;;;;;;;2.27;1.97;;;;;;;17.91;59.42;98913.59;6305154;22;40743;-83
2021/09/26 01:32:39;;;;;;;2.33;2.13;;;;;;;17.92;59.45;98926.88;6309525;22;42757;-85
2021/09/26 01:35:10;;;;;;;3.03;1.93;;;;;;;17.88;59.61;98925.44;6280234;22;42091;-86
2021/09/26 01:37:43;;;;;;;2.43;2.17;;;;;;;17.86;59.82;98931.91;6281678;22;42620;-83
2021/09/26 01:40:16;;;;;;;2.20;2.00;;;;;;;17.91;61.17;98945.75;6309257;22;40058;-84
2021/09/26 01:42:49;;;;;;;2.30;2.10;;;;;;;17.81;60.92;98939.53;6308719;22;42719;-85
2021/09/26 01:45:25;;;;;;;3.00;2.77;;;;;;;17.83;60.71;98937.56;6281611;22;43029;-84
2021/09/26 01:47:58;;;;;;;2.97;2.40;;;;;;;17.75;60.76;98919.50;6280967;22;42362;-84
2021/09/26 01:50:26;;;;;;;3.40;2.37;;;;;;;17.72;60.79;98922.47;6308400;22;39797;-84
2021/09/26 01:52:57;;;;;;;2.70;1.97;;;;;;;17.80;60.40;98929.81;6308215;22;42389;-84
2021/09/26 01:55:28;;;;;;;2.47;2.27;;;;;;;17.86;60.34;98946.16;6308937;22;43817;-84
2021/09/26 01:57:58;;;;;;;2.77;1.90;;;;;;;17.85;60.16;98943.63;6282319;22;42702;-84
2021/09/26 02:00:27;;;;;;;2.30;1.77;;;;;;;17.81;60.08;98944.88;6282380;22;41032;-84
2021/09/26 02:02:56;;;;;;;3.33;2.00;;;;;;;17.81;59.85;98951.09;6282940;22;42549;-83
2021/09/26 02:05:24;;;;;;;2.80;2.07;;;;;;;17.67;60.22;98923.88;6256509;22;42038;-83
2021/09/26 02:07:53;;;;;;;2.70;2.00;;;;;;;17.65;60.28;98923.16;6309908;22;43219;-85
2021/09/26 02:10:24;;;;;;;2.40;1.63;;;;;;;17.68;60.82;98912.19;6283145;22;40408;-84
2021/09/26 02:12:58;;;;;;;3.83;2.70;;;;;;;17.67;60.73;98915.84;6297503;22;42144;-84
2021/09/26 02:15:28;;;;;;;2.13;1.87;;;;;;;17.57;60.59;98895.19;6282253;22;42883;-85
2021/09/26 02:17:58;;;;;;;2.10;1.90;;;;;;;17.65;61.01;98901.75;6282658;22;42204;-85
2021/09/26 02:20:26;;;;;;;3.73;2.47;;;;;;;17.58;60.82;98896.91;6282639;22;40288;-81
2021/09/26 02:22:54;;;;;;;2.93;2.03;;;;;;;17.70;61.42;98902.16;6282325;22;42860;-81
2021/09/26 02:25:22;;;;;;;3.63;2.40;;;;;;;17.73;61.17;98912.59;6281983;22;41877;-82
2021/09/26 02:27:49;;;;;;;2.40;1.97;;;;;;;17.75;60.73;98930.22;6309540;22;42621;-83
2021/09/26 02:30:18;;;;;;;2.30;2.10;;;;;;;17.79;60.80;98912.06;6309917;22;40569;-84
2021/09/26 02:33:00;;;;;;;2.40;2.20;;;;;;;17.79;61.00;98909.38;6283580;22;42695;-82
2021/09/26 02:35:27;;;;;;;2.90;2.00;;;;;;;17.72;60.36;98903.72;6282860;22;42940;-83
2021/09/26 02:37:55;;;;;;;2.40;2.20;;;;;;;17.74;61.60;98901.75;6282745;22;42360;-82
2021/09/26 02:40:22;;;;;;;2.73;2.10;;;;;;;17.68;62.07;98891.56;6281899;22;39739;-83
2021/09/26 02:43:00;;;;;;;3.80;2.60;;;;;;;17.73;63.26;98904.56;6282518;22;41775;-82
2021/09/26 02:45:34;;;;;;;3.03;2.73;;;;;;;17.58;63.40;98888.00;6309953;22;43608;-83
2021/09/26 02:48:06;;;;;;;4.53;3.20;;;;;;;17.59;63.52;98903.94;6255781;22;41150;-83
2021/09/26 02:50:42;;;;;;;3.57;2.90;;;;;;;17.52;63.58;98896.63;6282527;22;40993;-82
2021/09/26 02:53:11;;;;;;;3.03;2.73;;;;;;;17.44;63.33;98889.25;6281234;22;41568;-83
2021/09/26 02:55:40;;;;;;;4.40;3.23;;;;;;;17.40;63.35;98887.84;6309347;22;43554;-83
2021/09/26 02:58:08;;;;;;;3.77;2.83;;;;;;;17.27;63.56;98879.22;6309316;22;42715;-84
2021/09/26 03:00:37;;;;;;;4.17;3.10;;;;;;;17.21;63.27;98887.81;6310149;22;40691;-85
2021/09/26 03:03:09;;;;;;;3.37;3.00;;;;;;;17.21;63.31;98904.69;6299210;22;42039;-83
2021/09/26 03:05:37;;;;;;;3.53;2.63;;;;;;;17.11;62.93;98905.66;6309670;22;43104;-83
2021/09/26 03:08:06;;;;;;;3.30;2.27;;;;;;;17.04;63.08;98904.53;6282606;22;42615;-83
2021/09/26 03:10:35;;;;;;;4.30;2.83;;;;;;;17.04;63.05;98912.53;6309901;22;40576;-83
2021/09/26 03:13:10;;;;;;;3.43;3.00;;;;;;;16.96;64.12;98898.97;6281927;22;42170;-81
2021/09/26 03:15:37;;;;;;;3.57;3.03;;;;;;;16.82;64.34;98890.34;6309777;22;43072;-83
2021/09/26 03:18:07;;;;;;;4.03;2.90;;;;;;;16.82;64.50;98898.34;6281334;22;43383;-82
2021/09/26 03:20:41;;;;;;;2.80;2.47;;;;;;;16.79;64.57;98898.66;6282171;22;40996;-82
2021/09/26 03:23:09;;;;;;;2.67;2.37;;;;;;;16.75;64.16;98907.06;6282336;22;41873;-83
2021/09/26 03:25:37;;;;;;;2.20;2.00;;;;;;;16.70;64.06;98904.78;6309535;22;43861;-82
2021/09/26 03:28:04;;;;;;;2.30;2.07;;;;;;;16.56;63.80;98902.44;6282166;22;43442;-83
2021/09/26 03:30:32;;;;;;;3.00;2.67;;;;;;;16.63;63.52;98908.13;6282419;22;40323;-82
2021/09/26 03:33:00;;;;;;;2.23;1.87;;;;;;;16.57;63.52;98908.63;6255691;22;40998;-82
2021/09/26 03:35:29;;;;;;;2.73;1.90;;;;;;;16.53;63.61;98913.41;6281897;22;43323;-82
2021/09/26 03:37:57;;;;;;;2.67;2.10;;;;;;;16.31;63.64;98885.00;6309304;22;43193;-83
2021/09/26 03:40:24;;;;;;;2.37;2.03;;;;;;;16.46;63.79;98922.91;6309214;22;40377;-83
2021/09/26 03:42:52;;;;;;;3.67;2.47;;;;;;;16.42;63.67;98916.16;6281316;22;41321;-84
2021/09/26 03:45:19;;;;;;;1.93;1.60;;;;;;;16.38;64.01;98925.41;6309469;22;43256;-82
2021/09/26 03:47:47;;;;;;;2.30;1.70;;;;;;;16.26;63.85;98905.06;6311249;22;42276;-83
2021/09/26 03:50:14;;;;;;;2.10;1.80;;;;;;;16.19;64.07;98903.91;6308427;22;43076;-83
2021/09/26 03:52:44;;;;;;;2.27;1.90;;;;;;;16.27;63.85;98920.97;6336543;22;42370;-82
2021/09/26 03:55:13;;;;;;;3.13;2.40;;;;;;;16.13;64.63;98887.38;6309458;22;44530;-83
2021/09/26 03:57:41;;;;;;;4.20;2.60;;;;;;;16.14;65.00;98906.94;6310225;22;43824;-83
2021/09/26 04:00:11;;;;;;;4.30;2.07;;;;;;;16.17;64.88;98907.53;6335960;22;40959;-84
2021/09/26 04:02:39;;;;;;;4.83;2.20;;;;;;;16.14;65.28;98910.47;6327515;22;43460;-82
2021/09/26 04:05:07;;;;;;;2.07;1.70;;;;;;;16.10;64.84;98911.69;6285214;22;43067;-83
2021/09/26 04:07:35;;;;;;;2.27;2.00;;;;;;;16.09;64.93;98918.00;6283251;22;43063;-83
2021/09/26 04:10:05;;;;;;;2.37;1.73;;;;;;;16.08;64.77;98916.31;6284921;22;40257;-83
2021/09/26 04:12:34;;;;;;;1.60;1.50;;;;;;;16.08;64.36;98904.78;6311145;22;41799;-82
2021/09/26 04:15:02;;;;;;;1.53;1.43;;;;;;;16.06;64.51;98904.09;6284125;22;42940;-83
2021/09/26 04:17:29;;;;;;;2.30;1.80;;;;;;;16.04;64.36;98911.38;6308779;22;43194;-83
2021/09/26 04:19:57;;;;;;;2.30;1.53;;;;;;;16.02;64.48;98908.81;6281702;22;40472;-83
2021/09/26 04:22:25;;;;;;;2.33;1.60;;;;;;;15.90;64.24;98893.81;6255715;22;41027;-82
2021/09/26 04:24:52;;;;;;;1.90;1.30;;;;;;;15.99;64.48;98914.41;6297379;22;43376;-84
2021/09/26 04:27:21;;;;;;;1.80;1.70;;;;;;;15.95;64.89;98910.28;6280661;22;41274;-83
2021/09/26 04:29:49;;;;;;;1.80;1.63;;;;;;;15.92;64.40;98907.91;6281993;22;40423;-82
2021/09/26 04:32:16;;;;;;;2.10;1.90;;;;;;;15.88;64.82;98909.13;6255862;22;40815;-83
2021/09/26 04:34:44;;;;;;;2.30;1.90;;;;;;;15.74;65.04;98888.06;6281407;22;43472;-82
2021/09/26 04:37:12;;;;;;;2.60;1.80;;;;;;;15.81;64.94;98899.94;6255850;22;41398;-82
2021/09/26 04:39:40;;;;;;;2.87;2.00;;;;;;;15.69;65.07;98874.25;6280887;22;40225;-82
2021/09/26 04:42:08;;;;;;;2.20;1.67;;;;;;;15.75;65.23;98884.41;6281661;22;42318;-83
2021/09/26 04:44:37;;;;;;;1.80;1.67;;;;;;;15.69;65.57;98874.25;6256944;22;43110;-83
2021/09/26 04:47:05;;;;;;;2.90;2.30;;;;;;;15.50;66.54;98836.69;6281845;22;42364;-82
2021/09/26 04:49:39;;;;;;;3.50;2.40;;;;;;;15.62;66.93;98870.38;6308892;22;40375;-82
2021/09/26 04:52:07;;;;;;;2.87;2.50;;;;;;;15.66;66.49;98890.53;6253899;22;40677;-83
2021/09/26 04:54:36;;;;;;;2.77;2.00;;;;;;;15.64;65.94;98897.81;6304770;22;42846;-83
2021/09/26 04:57:04;;;;;;;2.17;1.93;;;;;;;15.57;65.75;98888.63;6282086;22;42658;-82
2021/09/26 04:59:32;;;;;;;2.17;1.80;;;;;;;15.58;65.71;98890.31;6282118;22;39449;-81
2021/09/26 05:02:01;;;;;;;2.27;1.80;;;;;;;15.44;65.73;98886.94;6282117;22;42522;-83
2021/09/26 05:04:30;;;;;;;1.50;1.40;;;;;;;15.52;65.66;98896.13;6255005;22;42348;-84
2021/09/26 05:06:58;;;;;;;1.73;1.63;;;;;;;15.47;65.63;98907.16;6309533;22;43238;-83
2021/09/26 05:09:26;;;;;;;2.30;1.83;;;;;;;15.44;65.86;98908.28;6254720;22;39020;-83
2021/09/26 05:11:54;;;;;;;2.47;2.27;;;;;;;15.41;67.07;98908.53;6281178;22;40939;-83
2021/09/26 05:14:22;;;;;;;3.87;2.37;;;;;;;15.38;66.42;98916.78;6281603;22;42926;-84
2021/09/26 05:16:50;;;;;;;2.57;2.27;;;;;;;15.35;66.38;98914.34;6278355;22;41206;-82
2021/09/26 05:19:19;;;;;;;2.30;1.80;;;;;;;15.35;66.10;98919.69;6279888;22;39108;-83
2021/09/26 05:21:47;;;;;;;2.57;2.10;;;;;;;15.33;65.99;98921.63;6280126;22;40697;-82
2021/09/26 05:24:14;;;;;;;1.97;1.77;;;;;;;15.33;66.26;98918.94;6281441;22;42859;-83
2021/09/26 05:26:48;;;;;;;3.10;2.40;;;;;;;15.32;67.99;98908.44;6281263;22;41993;-81
2021/09/26 05:29:16;;;;;;;2.43;1.73;;;;;;;15.31;67.85;98914.75;6309066;22;40906;-85
2021/09/26 05:31:49;;;;;;;2.63;2.10;;;;;;;15.22;67.66;98902.13;6247492;22;41798;-82
2021/09/26 05:34:17;;;;;;;2.03;1.77;;;;;;;15.31;67.32;98912.06;6288575;22;43458;-82
2021/09/26 05:36:46;;;;;;;2.50;1.90;;;;;;;15.31;67.62;98920.06;6285549;22;43025;-83
2021/09/26 05:39:13;;;;;;;2.47;2.03;;;;;;;15.29;67.01;98914.00;6256003;22;38981;-81
2021/09/26 05:41:41;;;;;;;3.20;2.00;;;;;;;15.35;66.93;98925.03;6256057;22;41120;-82
2021/09/26 05:44:08;;;;;;;2.27;1.80;;;;;;;15.36;67.16;98928.53;6310532;22;42913;-81
2021/09/26 05:46:36;;;;;;;2.97;2.00;;;;;;;15.32;66.77;98922.63;6288103;22;42424;-81
2021/09/26 05:49:03;;;;;;;5.63;2.27;;;;;;;15.40;66.81;98932.66;6286899;22;40023;-82
2021/09/26 05:51:31;;;;;;;2.17;1.80;;;;;;;15.41;66.94;98926.34;6311847;22;41672;-84
2021/09/26 05:54:00;;;;;;;2.20;2.00;;;;;;;15.43;66.91;98930.59;6289082;22;43576;-84
2021/09/26 05:56:27;;;;;;;2.37;2.00;;;;;;;15.43;66.54;98935.94;6287499;22;42400;-83
2021/09/26 05:58:54;;;;;;;2.93;2.10;;;;;;;15.49;66.56;98936.41;6290803;22;39415;-82
2021/09/26 06:01:22;;;;;;;2.20;1.90;;;;;;;15.43;66.42;98916.41;6293671;22;43192;-83
2021/09/26 06:03:50;;;;;;;1.87;1.50;;;;;;;15.55;66.68;98931.47;6317699;22;42716;-84
2021/09/26 06:06:17;;;;;;;1.90;1.60;;;;;;;15.59;66.65;98930.22;6310031;22;42976;-83
2021/09/26 06:08:44;;;;;;;1.60;1.40;;;;;;;15.66;66.32;98938.59;6291527;22;40701;-82
2021/09/26 06:11:14;;;;;;;2.17;1.67;;;;;;;15.72;66.17;98943.41;6288158;22;43121;-84
2021/09/26 06:13:41;;;;;;;2.43;1.97;;;;;;;15.76;66.28;98939.53;6288749;22;43627;-84
2021/09/26 06:16:08;;;;;;;1.90;1.70;;;;;;;15.56;65.89;98890.44;6288997;22;42643;-83
2021/09/26 06:18:36;;;;;;;1.63;1.53;;;;;;;15.79;67.01;98918.75;6290566;22;40434;-82
2021/09/26 06:21:03;;;;;;;2.77;2.00;;;;;;;15.92;66.54;98939.97;6310677;22;41767;-83
2021/09/26 06:23:31;;;;;;;2.57;1.67;;;;;;;16.00;66.22;98942.81;6313211;22;42843;-82
2021/09/26 06:26:00;;;;;;;1.97;1.80;;;;;;;16.07;66.12;98953.88;6317411;22;42725;-81
2021/09/26 06:28:29;;;;;;;2.13;1.93;;;;;;;16.13;65.95;98951.50;6291557;22;40481;-83
2021/09/26 06:30:56;;;;;;;1.60;1.47;;;;;;;16.19;65.83;98949.31;6265414;22;42425;-81
2021/09/26 06:33:25;;;;;;;2.57;1.50;;;;;;;16.22;65.89;98952.56;6318226;22;43522;-84
2021/09/26 06:35:52;;;;;;;1.80;1.50;;;;;;;16.17;66.04;98939.59;6284863;22;41311;-83
2021/09/26 06:38:20;;;;;;;2.30;1.90;;;;;;;16.32;66.08;98955.34;6285180;22;40290;-81
2021/09/26 06:40:54;;;;;;;2.23;1.80;;;;;;;16.35;65.74;98955.91;6285411;22;42206;-82
2021/09/26 06:43:21;;;;;;;2.67;2.20;;;;;;;16.40;65.79;98955.53;6283315;22;42835;-82
2021/09/26 06:45:50;;;;;;;2.23;2.03;;;;;;;16.43;66.09;98955.25;6313283;22;43237;-81
2021/09/26 06:48:18;;;;;;;2.70;2.23;;;;;;;16.41;66.52;98941.19;6281318;22;40742;-80
2021/09/26 06:50:49;;;;;;;2.43;2.10;;;;;;;16.51;66.29;98952.78;6282399;22;42271;-83
2021/09/26 06:53:16;;;;;;;2.63;2.10;;;;;;;16.55;66.20;98954.22;6281464;22;42952;-83
2021/09/26 06:55:44;;;;;;;2.40;2.20;;;;;;;16.62;66.01;98971.44;6308757;22;43165;-82
2021/09/26 06:58:11;;;;;;;2.20;2.00;;;;;;;16.77;65.87;98964.78;6280769;22;40390;-81
2021/09/26 07:00:39;;;;;;;2.67;2.30;;;;;;;16.88;65.69;98962.03;6309280;22;42328;-84
2021/09/26 07:03:08;;;;;;;2.13;1.73;;;;;;;17.00;65.23;98967.31;6254918;22;42904;-82
2021/09/26 07:05:36;;;;;;;3.17;2.60;;;;;;;17.02;65.27;98958.16;6309040;22;43838;-83
2021/09/26 07:08:03;;;;;;;2.50;2.07;;;;;;;17.23;65.09;98974.16;6281510;22;40454;-83
2021/09/26 07:10:31;;;;;;;3.10;2.67;;;;;;;17.38;64.98;98977.31;6303192;22;41441;-81
2021/09/26 07:12:58;;;;;;;2.20;1.97;;;;;;;17.51;64.63;98970.75;6253950;22;42819;-81
2021/09/26 07:15:26;;;;;;;3.03;2.10;;;;;;;17.67;64.46;98974.78;6254787;22;40958;-84
2021/09/26 07:17:57;;;;;;;2.90;2.20;;;;;;;17.84;64.47;98963.34;6281464;22;40621;-82
2021/09/26 07:20:27;;;;;;;4.23;2.87;;;;;;;18.13;64.11;98966.06;6254978;22;41053;-83
2021/09/26 07:22:55;;;;;;;2.73;2.30;;;;;;;18.97;63.49;98962.59;6281335;22;43723;-84
2021/09/26 07:25:30;;;;;;;4.00;2.43;;;;;;;19.83;61.88;98975.78;6281284;22;42621;-82
2021/09/26 07:27:58;;;;;;;3.00;2.60;;;;;;;20.36;60.39;98974.00;6280974;22;40917;-84
2021/09/26 07:30:26;;;;;;;3.20;2.30;;;;;;;21.18;58.25;98983.47;6281424;22;42433;-82
2021/09/26 07:32:54;;;;;;;3.07;2.80;;;;;;;22.30;55.49;98992.19;6304756;22;42885;-84
2021/09/26 07:35:21;;;;;;;2.87;2.67;;;;;;;23.78;52.15;99014.28;6308448;22;42282;-84
2021/09/26 07:37:51;;;;;;;2.90;2.43;;;;;;;24.81;49.36;99019.38;6250493;22;39560;-83
2021/09/26 07:40:18;;;;;;;3.20;2.40;;;;;;;24.54;49.23;99018.91;6276755;22;40775;-84
2021/09/26 07:42:46;;;;;;;2.97;2.50;;;;;;;23.93;50.07;99000.84;6276263;22;41853;-83
2021/09/26 07:45:14;;;;;;;3.27;2.60;;;;;;;23.53;50.66;99010.81;6251225;22;42682;-83
2021/09/26 07:47:43;;;;;;;2.90;2.60;;;;;;;23.37;50.64;99007.31;6250611;22;38884;-83
2021/09/26 07:50:11;;;;;;;2.87;2.50;;;;;;;23.28;50.78;99012.72;6275495;22;41756;-86
2021/09/26 07:52:39;;;;;;;3.87;3.07;;;;;;;23.22;51.20;99013.44;6251015;22;42825;-84
2021/09/26 07:55:10;;;;;;;3.40;2.53;;;;;;;23.03;51.48;99003.00;6250377;22;41558;-85
2021/09/26 07:57:37;;;;;;;2.93;2.60;;;;;;;22.88;51.66;99004.69;6298836;22;40503;-84
2021/09/26 08:00:06;;;;;;;3.60;2.90;;;;;;;22.72;52.36;98999.28;6293970;22;42697;-84
2021/09/26 08:02:39;;;;;;;3.07;2.67;;;;;;;22.66;52.21;99011.59;6303867;22;42948;-83
2021/09/26 08:05:08;;;;;;;2.90;2.60;;;;;;;22.74;52.85;98987.31;6276947;22;43187;-83
2021/09/26 08:07:36;;;;;;;3.30;2.73;;;;;;;23.16;51.61;98981.69;6276705;22;39185;-85
2021/09/26 08:10:06;;;;;;;3.30;3.00;;;;;;;24.33;50.36;99013.34;6276672;22;41941;-83
2021/09/26 08:12:41;;;;;;;3.20;2.90;;;;;;;26.00;47.37;99030.16;6303886;22;43765;-83
2021/09/26 08:15:10;;;;;;;3.33;2.80;;;;;;;27.88;43.24;99059.50;6251479;22;41363;-84
2021/09/26 08:17:37;;;;;;;3.40;2.93;;;;;;;29.39;40.18;99074.59;6275060;22;40046;-85
2021/09/26 08:20:06;;;;;;;3.60;3.30;;;;;;;29.73;38.99;99074.31;6276743;22;41722;-84
2021/09/26 08:22:33;;;;;;;3.17;2.97;;;;;;;29.39;39.26;99064.53;6275508;22;43710;-83
2021/09/26 08:25:02;;;;;;;3.37;3.07;;;;;;;30.23;37.75;99083.66;6275940;22;42335;-85
2021/09/26 08:27:30;;;;;;;3.50;3.20;;;;;;;31.25;35.69;99081.81;6302777;22;40762;-85
2021/09/26 08:29:59;;;;;;;3.33;3.03;;;;;;;31.88;34.88;99092.59;6278293;22;42092;-83
2021/09/26 08:32:26;;;;;;;3.20;2.90;;;;;;;32.90;33.43;99108.19;6275744;22;42791;-85
2021/09/26 08:34:54;;;;;;;3.97;2.73;;;;;;;33.73;32.36;99107.28;6251050;22;41178;-84
2021/09/26 08:37:29;;;;;;;3.43;3.13;;;;;;;34.78;30.54;99104.34;6249759;22;39141;-84
2021/09/26 08:39:56;;;;;;;3.30;3.00;;;;;;;35.81;29.28;99119.66;6275086;22;40633;-84
2021/09/26 08:42:24;;;;;;;3.42;3.13;;;;;;;35.95;28.85;99107.19;6269566;22;43098;-84
2021/09/26 08:44:52;;;;;;;2.90;2.70;;;;;;;35.81;28.72;99103.97;6237675;22;41589;-83
2021/09/26 08:47:21;;;;;;;2.67;2.47;;;;;;;35.92;28.32;99114.03;6274206;22;38953;-84
2021/09/26 08:49:49;;;;;;;8.30;3.20;;;;;;;34.93;28.90;99104.66;6273974;22;42900;-84
2021/09/26 08:52:17;;;;;;;3.73;3.30;;;;;;;33.99;30.75;99095.00;6299630;22;42657;-84
2021/09/26 08:54:49;;;;;;;2.77;2.57;;;;;;;33.56;31.35;99093.44;6249437;22;41199;-85
2021/09/26 08:57:17;;;;;;;3.17;2.97;;;;;;;33.83;31.68;99100.16;6250562;22;39009;-81
2021/09/26 08:59:51;;;;;;;3.27;2.97;;;;;;;34.33;30.29;99105.09;6278467;22;41784;-87
2021/09/26 09:02:18;;;;;;;3.30;3.00;;;;;;;34.62;29.53;99110.63;6297270;22;43392;-84
2021/09/26 09:04:50;;;;;;;3.77;3.47;;;;;;;33.90;30.16;99097.25;6279328;22;42322;-86
2021/09/26 09:07:18;;;;;;;3.43;3.13;;;;;;;33.44;31.13;99098.91;6253462;22;40237;-87
2021/09/26 09:09:50;;;;;;;3.10;2.90;;;;;;;33.10;31.80;99086.78;6259277;22;40711;-88
2021/09/26 09:12:24;;;;;;;3.83;3.23;;;;;;;32.44;32.69;99084.97;6255702;22;42715;-85
2021/09/26 09:14:54;;;;;;;2.83;2.63;;;;;;;31.81;33.30;99094.56;6281620;22;41825;-90
2021/09/26 09:17:26;;;;;;;3.07;2.77;;;;;;;31.33;34.74;99079.63;6255623;22;39360;-87
2021/09/26 09:20:22;;;;;;;3.53;2.70;;;;;;;30.98;35.29;99092.94;6257176;22;41006;-82
2021/09/26 09:22:53;;;;;;;3.73;3.30;;;;;;;30.61;35.91;99094.63;6256539;22;42142;-86
2021/09/26 09:25:34;;;;;;;4.03;3.27;;;;;;;30.27;36.19;99093.09;6282623;22;42701;-87
2021/09/26 09:28:11;;;;;;;3.37;3.07;;;;;;;30.07;36.92;99091.47;6280704;22;40377;-85
2021/09/26 09:30:41;;;;;;;3.93;3.03;;;;;;;29.98;37.14;99099.06;6257489;22;40611;-86
2021/09/26 09:33:10;;;;;;;2.93;2.63;;;;;;;29.78;37.27;99081.88;6256044;22;43351;-91
2021/09/26 09:35:45;;;;;;;3.20;2.77;;;;;;;29.69;37.50;99091.34;6282621;22;42253;-85
2021/09/26 09:38:17;;;;;;;2.80;2.57;;;;;;;29.59;37.26;99091.78;6258183;22;40093;-84
2021/09/26 09:40:51;;;;;;;3.20;2.90;;;;;;;29.56;37.56;99075.81;6282990;22;41923;-83
2021/09/26 09:43:19;;;;;;;2.60;2.40;;;;;;;29.49;37.58;99067.66;6281820;22;43698;-88
2021/09/26 09:45:49;;;;;;;3.47;2.80;;;;;;;29.46;37.66;99075.41;6257064;22;41266;-82
2021/09/26 09:48:18;;;;;;;7.63;5.60;;;;;;;29.37;37.72;99077.50;6299912;22;40045;-83
2021/09/26 09:51:02;;;;;;;4.30;3.90;;;;;;;29.59;38.02;99086.31;6280666;22;42004;-85
2021/09/26 09:53:36;;;;;;;4.03;3.03;;;;;;;29.84;37.49;99070.09;6279184;22;42564;-85
2021/09/26 09:56:17;;;;;;;3.10;2.80;;;;;;;30.22;37.14;99087.44;6255014;22;41215;-84
2021/09/26 09:58:47;;;;;;;2.97;2.67;;;;;;;30.49;37.49;99087.31;6281289;22;38959;-83
2021/09/26 10:01:18;;;;;;;2.80;2.43;;;;;;;30.60;37.09;99094.84;6254988;22;40881;-85
2021/09/26 10:03:49;;;;;;;3.00;2.70;;;;;;;30.78;36.95;99091.41;6256186;22;41656;-86
2021/09/26 10:06:28;;;;;;;3.40;3.00;;;;;;;31.08;36.27;99076.84;6281344;22;41302;-84
2021/09/26 10:09:17;;;;;;;2.90;2.60;;;;;;;31.67;35.98;99091.13;6255007;22;40053;-83
2021/09/26 10:11:46;;;;;;;3.67;2.70;;;;;;;32.16;34.59;99072.88;6283830;22;42131;-85
2021/09/26 10:14:15;;;;;;;4.47;3.03;;;;;;;32.27;34.42;99075.69;6255297;22;42231;-81
2021/09/26 10:16:43;;;;;;;3.43;3.13;;;;;;;32.24;34.46;99062.47;6281763;22;41353;-86
2021/09/26 10:19:21;;;;;;;3.30;2.80;;;;;;;32.31;34.83;99074.19;6256293;22;39080;-83
2021/09/26 10:21:53;;;;;;;4.20;3.70;;;;;;;32.32;33.69;99075.84;6282406;22;41737;-84
2021/09/26 10:24:21;;;;;;;3.73;3.13;;;;;;;32.45;34.81;99078.44;6308225;22;44132;-85
2021/09/26 10:26:50;;;;;;;3.20;2.90;;;;;;;32.88;33.33;99093.06;6282242;22;42742;-84
2021/09/26 10:29:21;;;;;;;3.37;3.03;;;;;;;32.88;32.71;99099.38;6281271;22;41083;-83
2021/09/26 10:31:50;;;;;;;3.60;3.30;;;;;;;33.21;32.77;99098.03;6280478;22;40813;-84
2021/09/26 10:34:21;;;;;;;2.80;2.50;;;;;;;33.24;33.15;99078.38;6255580;22;41863;-84
2021/09/26 10:36:49;;;;;;;2.97;2.73;;;;;;;33.18;33.15;99091.94;6255874;22;41305;-83
2021/09/26 10:39:19;;;;;;;4.47;3.00;;;;;;;32.97;33.01;99081.50;6282204;22;41202;-84
2021/09/26 10:42:06;;;;;;;2.83;2.63;;;;;;;33.21;32.67;99093.38;6255867;22;40905;-83
2021/09/26 10:44:38;;;;;;;2.70;2.50;;;;;;;33.06;32.92;99085.56;6281358;22;42955;-83
2021/09/26 10:47:09;;;;;;;2.60;2.40;;;;;;;33.11;33.17;99093.97;6281503;22;42390;-87
2021/09/26 10:49:38;;;;;;;3.10;2.60;;;;;;;33.24;33.05;99101.16;6282495;22;41047;-86
2021/09/26 10:52:22;;;;;;;2.40;2.20;;;;;;;33.44;32.71;99104.41;6256137;22;40653;-84
2021/09/26 10:54:53;;;;;;;2.30;2.10;;;;;;;33.54;33.02;99101.06;6281288;22;43157;-85
2021/09/26 10:57:24;;;;;;;2.80;2.53;;;;;;;33.81;32.51;99109.69;6256039;22;42159;-84
2021/09/26 10:59:53;;;;;;;2.97;2.67;;;;;;;35.25;31.33;99099.41;6256009;22;38830;-83
2021/09/26 11:02:40;;;;;;;3.07;2.77;;;;;;;36.13;30.70;99100.53;6300188;22;42043;-84
2021/09/26 11:05:32;;;;;;;3.67;3.27;;;;;;;36.64;29.15;99107.53;6246125;22;42131;-85
2021/09/26 11:08:00;;;;;;;2.70;2.50;;;;;;;37.74;28.33;99117.19;6257666;22;42413;-83
2021/09/26 11:10:42;;;;;;;2.85;2.65;;;;;;;38.62;26.16;99134.84;6254773;22;40034;-82
2021/09/26 11:13:25;;;;;;;2.92;2.55;;;;;;;39.49;25.84;99122.00;6282538;22;41864;-85
2021/09/26 11:16:09;;;;;;;2.20;2.10;;;;;;;39.99;24.93;99125.84;6259976;22;41868;-83
2021/09/26 11:18:56;;;;;;;2.38;2.17;;;;;;;39.37;25.30;99116.72;6287878;22;41304;-87
2021/09/26 11:22:00;;;;;;;2.55;2.35;;;;;;;40.43;23.89;99124.06;6259070;22;39177;-90
2021/09/26 11:24:44;;;;;;;2.50;2.30;;;;;;;42.08;22.28;99124.28;6258792;22;41528;-84
2021/09/26 11:27:37;;;;;;;2.58;2.38;;;;;;;42.80;21.81;99119.50;6254773;22;43480;-86
2021/09/26 11:30:26;;;;;;;2.38;2.17;;;;;;;42.33;22.41;99113.97;6255707;22;42467;-88
2021/09/26 11:33:08;;;;;;;2.60;2.40;;;;;;;41.66;23.23;99094.38;6257825;22;39313;-90
2021/09/26 11:35:38;;;;;;;2.40;1.92;;;;;;;41.32;23.54;99077.69;6256456;22;41225;-90
2021/09/26 11:38:14;;;;;;;2.38;2.25;;;;;;;42.01;22.55;99101.56;6282284;22;42517;-86
2021/09/26 11:41:00;;;;;;;2.10;2.00;;;;;;;42.88;21.83;99093.78;6258505;22;42324;-88
2021/09/26 11:43:33;;;;;;;2.13;2.03;;;;;;;42.76;21.77;99096.16;6281887;22;40197;-83
2021/09/26 11:46:14;;;;;;;2.00;1.90;;;;;;;42.00;22.07;99093.50;6282325;22;42347;-83
2021/09/26 11:48:42;;;;;;;1.65;1.55;;;;;;;41.49;22.81;99082.84;6282842;22;43884;-88
2021/09/26 11:51:13;;;;;;;2.03;1.92;;;;;;;41.49;22.85;99083.66;6256720;22;42589;-83